Time;durP1;ratioP1;P1;durP2;ratioP2;P2;SDS_P1;SDS_P2;PMS_P1;PMS_P2;Temp;Humidity;BMP_temperature;BMP_pressure;BME280_temperature;BME280_humidity;BME280_pressure;Samples;Min_cycle;Max_cycle;Signal;HPM_P1;HPM_P2
2023/10/27 00:01:08;;;;;;;;;;;;;;;8.87;57.58;93333.09;5041710;28;20623;-67
2023/10/27 00:03:34;;;;;;;;;;;;;;;7.87;57.04;93331.28;5043308;28;20589;-67
2023/10/27 00:05:59;;;;;;;;;;;;;;;8.00;56.39;93328.53;5044038;28;20012;-68
2023/10/27 00:08:24;;;;;;;;;;;;;;;8.32;56.90;93330.22;5043231;28;19971;-68
2023/10/27 00:10:49;;;;;;;;;;;;;;;8.71;55.81;93330.03;5043865;28;20003;-67
2023/10/27 00:13:15;;;;;;;;;;;;;;;8.87;55.14;93335.75;5043205;28;20131;-68
2023/10/27 00:15:40;;;;;;;;;;;;;;;8.72;55.67;93336.13;5043493;28;19921;-68
2023/10/27 00:18:05;;;;;;;;;;;;;;;7.89;55.85;93326.56;5043882;28;20004;-68
2023/10/27 00:20:31;;;;;;;;;;;;;;;8.43;57.11;93326.03;5042887;28;19928;-67
2023/10/27 00:22:56;;;;;;;;;;;;;;;8.26;55.56;93318.66;5042728;28;20023;-69
2023/10/27 00:25:21;;;;;;;;;;;;;;;8.49;55.89;93319.84;5043397;28;19921;-70
2023/10/27 00:27:46;;;;;;;;;;;;;;;7.97;56.12;93318.34;5043018;28;19921;-71
2023/10/27 00:30:12;;;;;;;;;;;;;;;8.16;57.63;93331.63;5043503;28;19925;-70
2023/10/27 00:32:37;;;;;;;;;;;;;;;8.49;56.90;93327.81;5043022;28;19948;-70
2023/10/27 00:35:04;;;;;;;;;;;;;;;8.64;56.40;93331.94;5043684;28;19920;-69
2023/10/27 00:37:31;;;;;;;;;;;;;;;8.08;54.75;93334.53;5042965;28;19917;-69
2023/10/27 00:39:57;;;;;;;;;;;;;;;8.53;56.44;93329.00;5043459;28;20423;-71
2023/10/27 00:42:22;;;;;;;;;;;;;;;8.22;56.70;93327.28;5043693;28;19925;-69
2023/10/27 00:44:48;;;;;;;;;;;;;;;8.37;56.44;93326.94;5043057;28;20639;-69
2023/10/27 00:47:13;;;;;;;;;;;;;;;8.64;54.98;93316.03;5047026;28;20573;-71
2023/10/27 00:49:38;;;;;;;;;;;;;;;8.70;53.77;93328.38;5042698;28;19928;-69
2023/10/27 00:52:04;;;;;;;;;;;;;;;8.35;54.65;93327.16;5042036;28;20432;-68
2023/10/27 00:54:29;;;;;;;;;;;;;;;8.66;54.91;93322.72;5041512;28;19917;-68
2023/10/27 00:56:54;;;;;;;;;;;;;;;8.77;54.38;93328.31;5042571;28;19931;-69
2023/10/27 00:59:20;;;;;;;;;;;;;;;8.72;54.01;93328.16;5041316;28;19913;-71
2023/10/27 01:01:45;;;;;;;;;;;;;;;8.78;55.31;93321.97;5042370;28;19940;-70
2023/10/27 01:04:10;;;;;;;;;;;;;;;8.91;55.37;93328.97;5041881;28;20013;-70
2023/10/27 01:06:35;;;;;;;;;;;;;;;8.88;54.84;93324.91;5042543;28;19921;-68
2023/10/27 01:09:01;;;;;;;;;;;;;;;8.94;55.13;93320.53;5042308;28;19959;-71
2023/10/27 01:11:26;;;;;;;;;;;;;;;9.04;54.97;93323.50;5042477;28;19952;-69
2023/10/27 01:13:52;;;;;;;;;;;;;;;8.59;54.06;93321.16;5041489;28;19924;-69
2023/10/27 01:16:17;;;;;;;;;;;;;;;8.88;54.97;93316.16;5042180;28;19955;-69
2023/10/27 01:18:42;;;;;;;;;;;;;;;8.96;55.66;93315.84;5040256;28;19921;-70
2023/10/27 01:21:07;;;;;;;;;;;;;;;9.02;54.38;93311.50;5040424;28;19935;-69
2023/10/27 01:23:33;;;;;;;;;;;;;;;9.02;53.89;93316.81;5041625;28;19925;-68
2023/10/27 01:25:58;;;;;;;;;;;;;;;8.93;55.09;93317.09;5042269;28;19925;-67
2023/10/27 01:28:23;;;;;;;;;;;;;;;9.02;54.35;93317.63;5041371;28;19928;-67
2023/10/27 01:30:49;;;;;;;;;;;;;;;8.94;54.99;93309.91;5042358;28;19913;-68
2023/10/27 01:33:14;;;;;;;;;;;;;;;8.75;54.25;93314.47;5041780;28;19920;-67
2023/10/27 01:35:39;;;;;;;;;;;;;;;8.91;55.53;93307.75;5041256;28;19921;-67
2023/10/27 01:38:05;;;;;;;;;;;;;;;9.01;55.18;93317.84;5042245;28;19921;-68
2023/10/27 01:40:30;;;;;;;;;;;;;;;9.12;54.07;93311.78;5041378;28;19959;-68
2023/10/27 01:42:55;;;;;;;;;;;;;;;8.81;55.00;93311.72;5041659;28;19921;-67
2023/10/27 01:45:21;;;;;;;;;;;;;;;8.77;53.71;93313.19;5042418;28;19992;-67
2023/10/27 01:47:46;;;;;;;;;;;;;;;8.99;53.26;93312.75;5047726;28;19916;-68
2023/10/27 01:50:12;;;;;;;;;;;;;;;9.10;52.65;93311.19;5043689;28;20550;-67
2023/10/27 01:52:37;;;;;;;;;;;;;;;8.99;53.69;93299.50;5036647;28;19925;-67
2023/10/27 01:55:02;;;;;;;;;;;;;;;9.03;53.23;93303.31;5045377;28;20078;-68
2023/10/27 01:57:28;;;;;;;;;;;;;;;9.03;53.41;93305.16;5041058;28;20637;-68
2023/10/27 01:59:53;;;;;;;;;;;;;;;8.94;54.29;93297.47;5041230;28;19977;-68
2023/10/27 02:02:18;;;;;;;;;;;;;;;8.59;54.43;93305.25;5041447;28;19917;-68
2023/10/27 02:04:44;;;;;;;;;;;;;;;8.62;53.81;93312.78;5040946;28;19924;-68
2023/10/27 02:07:09;;;;;;;;;;;;;;;8.71;53.78;93298.19;5041497;28;20135;-67
2023/10/27 02:09:34;;;;;;;;;;;;;;;8.78;53.88;93301.53;5040805;28;20336;-68
2023/10/27 02:11:59;;;;;;;;;;;;;;;8.19;54.90;93294.06;5042342;28;20408;-68
2023/10/27 02:14:25;;;;;;;;;;;;;;;8.42;54.38;93292.59;5041344;28;20009;-67
2023/10/27 02:16:50;;;;;;;;;;;;;;;8.56;54.31;93285.28;5040994;28;19921;-68
2023/10/27 02:19:16;;;;;;;;;;;;;;;8.44;54.14;93282.59;5040508;28;19917;-67
2023/10/27 02:21:41;;;;;;;;;;;;;;;8.72;53.88;93283.88;5039932;28;19916;-68
2023/10/27 02:24:06;;;;;;;;;;;;;;;8.77;53.98;93288.53;5040524;28;20317;-68
2023/10/27 02:26:31;;;;;;;;;;;;;;;8.71;54.27;93284.09;5041219;28;19943;-67
2023/10/27 02:28:57;;;;;;;;;;;;;;;8.55;53.64;93294.28;5040265;28;20004;-68
2023/10/27 02:31:22;;;;;;;;;;;;;;;8.52;54.37;93282.28;5041638;28;20028;-68
2023/10/27 02:33:47;;;;;;;;;;;;;;;8.56;53.61;93286.13;5041083;28;19925;-68
2023/10/27 02:36:12;;;;;;;;;;;;;;;8.53;54.13;93281.25;5040470;28;20447;-68
2023/10/27 02:38:37;;;;;;;;;;;;;;;8.53;54.40;93283.91;5040932;28;20322;-68
2023/10/27 02:41:06;;;;;;;;;;;;;;;8.39;54.43;93274.47;5040536;28;20463;-68
2023/10/27 02:43:33;;;;;;;;;;;;;;;8.44;54.83;93272.00;5040730;28;19921;-68
2023/10/27 02:45:59;;;;;;;;;;;;;;;8.47;54.61;93265.44;5040635;28;19920;-67
2023/10/27 02:48:25;;;;;;;;;;;;;;;8.40;54.49;93255.69;5040347;28;19940;-68
2023/10/27 02:50:50;;;;;;;;;;;;;;;8.48;55.31;93249.28;5040895;28;20302;-68
2023/10/27 02:53:15;;;;;;;;;;;;;;;8.54;55.75;93240.44;5039944;28;19947;-68
2023/10/27 02:55:40;;;;;;;;;;;;;;;8.42;55.31;93242.22;5040220;28;19946;-68
2023/10/27 02:58:06;;;;;;;;;;;;;;;8.62;53.82;93234.03;5040881;28;20032;-68
2023/10/27 03:00:31;;;;;;;;;;;;;;;8.00;54.41;93221.72;5040313;28;19966;-68
2023/10/27 03:02:56;;;;;;;;;;;;;;;7.77;56.47;93216.03;5040527;28;20011;-67
2023/10/27 03:05:21;;;;;;;;;;;;;;;8.16;56.65;93213.16;5040006;28;20067;-67
2023/10/27 03:07:47;;;;;;;;;;;;;;;8.39;55.81;93208.19;5039790;28;19966;-67
2023/10/27 03:10:12;;;;;;;;;;;;;;;8.54;54.91;93197.22;5040120;28;20027;-67
2023/10/27 03:12:37;;;;;;;;;;;;;;;8.68;55.78;93192.53;5039857;28;19920;-67
2023/10/27 03:15:03;;;;;;;;;;;;;;;8.79;55.34;93198.91;5040363;28;20567;-68
2023/10/27 03:17:28;;;;;;;;;;;;;;;8.85;53.79;93197.19;5039801;28;19920;-68
2023/10/27 03:19:54;;;;;;;;;;;;;;;8.88;52.54;93210.78;5039083;28;20552;-67
2023/10/27 03:22:20;;;;;;;;;;;;;;;8.41;53.53;93214.09;5038691;28;19918;-68
2023/10/27 03:24:45;;;;;;;;;;;;;;;8.56;55.38;93208.38;5039383;28;20404;-67
2023/10/27 03:27:10;;;;;;;;;;;;;;;8.77;55.28;93217.69;5040063;28;20566;-68
2023/10/27 03:29:36;;;;;;;;;;;;;;;8.75;53.75;93209.16;5039724;28;19979;-67
2023/10/27 03:32:01;;;;;;;;;;;;;;;8.74;52.97;93214.69;5039747;28;19921;-67
2023/10/27 03:34:26;;;;;;;;;;;;;;;8.76;54.32;93208.13;5039714;28;19925;-67
2023/10/27 03:36:51;;;;;;;;;;;;;;;8.74;54.23;93220.78;5039256;28;20078;-68
2023/10/27 03:39:17;;;;;;;;;;;;;;;8.52;55.40;93223.94;5039883;28;20017;-67
2023/10/27 03:41:42;;;;;;;;;;;;;;;8.74;55.52;93217.34;5039404;28;20536;-67
2023/10/27 03:44:07;;;;;;;;;;;;;;;8.91;55.54;93218.31;5039597;28;20542;-69
2023/10/27 03:46:32;;;;;;;;;;;;;;;8.95;55.35;93216.84;5043104;28;19925;-69
2023/10/27 03:48:58;;;;;;;;;;;;;;;9.07;55.07;93221.38;5039375;28;19932;-68
2023/10/27 03:51:25;;;;;;;;;;;;;;;9.05;54.43;93218.94;5039625;28;19947;-69
2023/10/27 03:53:50;;;;;;;;;;;;;;;8.99;54.67;93213.75;5036750;28;19924;-69
2023/10/27 03:56:16;;;;;;;;;;;;;;;9.05;55.57;93207.53;5039975;28;19917;-69
2023/10/27 03:58:41;;;;;;;;;;;;;;;9.12;55.48;93207.44;5039546;28;19924;-68
2023/10/27 04:01:06;;;;;;;;;;;;;;;9.20;55.37;93204.44;5039029;28;19932;-68
2023/10/27 04:03:31;;;;;;;;;;;;;;;9.21;54.99;93211.38;5039796;28;20007;-68
2023/10/27 04:05:57;;;;;;;;;;;;;;;9.24;54.25;93205.59;5039320;28;19931;-69
2023/10/27 04:08:22;;;;;;;;;;;;;;;9.29;55.22;93196.97;5038955;28;19925;-69
2023/10/27 04:10:47;;;;;;;;;;;;;;;9.33;54.96;93201.59;5039497;28;20537;-68
2023/10/27 04:13:14;;;;;;;;;;;;;;;9.36;54.20;93204.81;5039201;28;20400;-68
2023/10/27 04:15:39;;;;;;;;;;;;;;;9.35;54.33;93201.34;5039393;28;19916;-69
2023/10/27 04:18:04;;;;;;;;;;;;;;;9.38;54.62;93200.88;5038948;28;19913;-68
2023/10/27 04:20:29;;;;;;;;;;;;;;;9.43;54.48;93200.19;5038942;28;19958;-69
2023/10/27 04:22:55;;;;;;;;;;;;;;;9.41;53.24;93197.78;5038442;28;19924;-69
2023/10/27 04:25:20;;;;;;;;;;;;;;;9.43;54.88;93197.56;5038011;28;19931;-69
2023/10/27 04:27:45;;;;;;;;;;;;;;;9.38;54.59;93187.59;5038041;28;19921;-69
2023/10/27 04:30:11;;;;;;;;;;;;;;;9.41;54.01;93183.69;5039446;28;19932;-69
2023/10/27 04:32:39;;;;;;;;;;;;;;;9.51;54.04;93186.56;5039043;28;19952;-68
2023/10/27 04:35:05;;;;;;;;;;;;;;;9.45;54.27;93190.16;5033228;28;19917;-69
2023/10/27 04:37:33;;;;;;;;;;;;;;;9.42;53.94;93188.75;5039008;28;20471;-69
2023/10/27 04:39:58;;;;;;;;;;;;;;;9.36;53.27;93194.19;5039717;28;19932;-68
2023/10/27 04:42:24;;;;;;;;;;;;;;;9.40;54.93;93190.84;5042354;28;20545;-69
2023/10/27 04:44:49;;;;;;;;;;;;;;;9.39;53.77;93194.53;5039936;28;19935;-69
2023/10/27 04:47:15;;;;;;;;;;;;;;;9.39;54.08;93188.44;5043228;28;19917;-68
2023/10/27 04:49:40;;;;;;;;;;;;;;;9.42;53.17;93195.94;5042921;28;20386;-69
2023/10/27 04:52:08;;;;;;;;;;;;;;;9.42;54.00;93191.41;5042514;28;19917;-69
2023/10/27 04:54:36;;;;;;;;;;;;;;;9.42;54.50;93194.06;5041846;28;19939;-70
2023/10/27 04:57:04;;;;;;;;;;;;;;;9.48;54.43;93189.69;5042138;28;20536;-68
2023/10/27 04:59:30;;;;;;;;;;;;;;;9.52;53.76;93190.84;5043065;28;19928;-69
2023/10/27 05:01:55;;;;;;;;;;;;;;;9.48;54.38;93189.69;5042460;28;19920;-70
2023/10/27 05:04:20;;;;;;;;;;;;;;;9.53;53.99;93191.66;5042281;28;19953;-69
2023/10/27 05:06:46;;;;;;;;;;;;;;;9.51;53.53;93189.22;5042414;28;20413;-69
2023/10/27 05:09:12;;;;;;;;;;;;;;;9.13;54.32;93187.81;5042326;28;20442;-69
2023/10/27 05:11:38;;;;;;;;;;;;;;;9.19;52.61;93181.59;5042272;28;19917;-69
2023/10/27 05:14:03;;;;;;;;;;;;;;;9.28;54.18;93184.72;5042888;28;20566;-71
2023/10/27 05:16:28;;;;;;;;;;;;;;;9.41;53.54;93189.00;5041843;28;19920;-69
2023/10/27 05:18:53;;;;;;;;;;;;;;;9.17;52.72;93189.78;5040908;28;19931;-68
2023/10/27 05:21:19;;;;;;;;;;;;;;;8.92;54.65;93190.75;5040449;28;19978;-71
2023/10/27 05:23:44;;;;;;;;;;;;;;;9.04;54.22;93189.97;5042007;28;20404;-69
2023/10/27 05:26:10;;;;;;;;;;;;;;;8.78;54.42;93190.13;5042762;28;19916;-70
2023/10/27 05:28:35;;;;;;;;;;;;;;;8.97;55.00;93184.78;5037066;28;19971;-68
2023/10/27 05:31:00;;;;;;;;;;;;;;;8.11;56.01;93194.47;5042770;28;19925;-68
2023/10/27 05:33:25;;;;;;;;;;;;;;;8.60;55.69;93187.53;5042194;28;19955;-68
2023/10/27 05:35:51;;;;;;;;;;;;;;;8.75;54.31;93187.94;5041884;28;19928;-69
2023/10/27 05:38:16;;;;;;;;;;;;;;;8.92;55.07;93187.28;5041404;28;20306;-69
2023/10/27 05:40:41;;;;;;;;;;;;;;;8.68;53.39;93185.38;5041957;28;19921;-69
2023/10/27 05:43:07;;;;;;;;;;;;;;;8.89;54.82;93183.25;5042259;28;19986;-70
2023/10/27 05:45:32;;;;;;;;;;;;;;;8.86;53.83;93188.19;5043821;28;19921;-69
2023/10/27 05:47:57;;;;;;;;;;;;;;;9.01;54.02;93191.25;5043502;28;19931;-69
2023/10/27 05:50:22;;;;;;;;;;;;;;;8.91;53.17;93183.81;5041604;28;20008;-68
2023/10/27 05:52:48;;;;;;;;;;;;;;;8.81;54.31;93181.72;5043747;28;19952;-71
2023/10/27 05:55:13;;;;;;;;;;;;;;;8.94;55.43;93188.66;5041562;28;20033;-72
2023/10/27 05:57:38;;;;;;;;;;;;;;;9.08;54.11;93184.00;5041146;28;19993;-69
2023/10/27 06:00:04;;;;;;;;;;;;;;;9.03;52.97;93191.84;5040390;28;19920;-70
2023/10/27 06:02:29;;;;;;;;;;;;;;;9.15;54.60;93191.06;5040413;28;19932;-69
2023/10/27 06:04:54;;;;;;;;;;;;;;;9.19;54.55;93182.38;5041227;28;19931;-69
2023/10/27 06:07:20;;;;;;;;;;;;;;;9.14;53.29;93190.25;5041088;28;20013;-68
2023/10/27 06:09:45;;;;;;;;;;;;;;;9.23;54.55;93187.25;5041124;28;19936;-68
2023/10/27 06:12:10;;;;;;;;;;;;;;;9.16;53.37;93192.66;5041346;28;20432;-68
2023/10/27 06:14:35;;;;;;;;;;;;;;;9.25;53.68;93188.63;5041561;28;20474;-68
2023/10/27 06:17:01;;;;;;;;;;;;;;;9.19;52.55;93193.00;5041242;28;20637;-68
2023/10/27 06:19:26;;;;;;;;;;;;;;;9.08;53.63;93197.28;5041482;28;19959;-68
2023/10/27 06:21:52;;;;;;;;;;;;;;;9.13;53.80;93198.44;5034663;28;19920;-68
2023/10/27 06:24:17;;;;;;;;;;;;;;;9.03;53.43;93199.81;5040391;28;20549;-68
2023/10/27 06:26:42;;;;;;;;;;;;;;;9.02;53.08;93198.19;5041303;28;19924;-68
2023/10/27 06:29:08;;;;;;;;;;;;;;;9.11;54.01;93201.31;5040649;28;19928;-69
2023/10/27 06:31:33;;;;;;;;;;;;;;;9.32;54.46;93207.13;5041092;28;19974;-68
2023/10/27 06:33:58;;;;;;;;;;;;;;;9.02;52.52;93208.81;5040277;28;19951;-68
2023/10/27 06:36:25;;;;;;;;;;;;;;;9.10;54.47;93205.00;5040114;28;19975;-69
2023/10/27 06:38:50;;;;;;;;;;;;;;;9.22;54.73;93215.66;5040376;28;19967;-68
2023/10/27 06:41:16;;;;;;;;;;;;;;;9.27;53.06;93210.47;5040732;28;19968;-69
2023/10/27 06:43:41;;;;;;;;;;;;;;;9.33;54.50;93214.88;5040364;28;19920;-68
2023/10/27 06:46:06;;;;;;;;;;;;;;;9.39;53.75;93209.66;5046848;28;19916;-68
2023/10/27 06:48:31;;;;;;;;;;;;;;;9.46;54.06;93213.03;5040032;28;19932;-68
2023/10/27 06:50:57;;;;;;;;;;;;;;;9.51;53.96;93217.63;5040579;28;19955;-68
2023/10/27 06:53:22;;;;;;;;;;;;;;;9.49;53.37;93223.19;5038731;28;19990;-68
2023/10/27 06:55:47;;;;;;;;;;;;;;;9.06;52.13;93217.13;5039933;28;19924;-68
2023/10/27 06:58:12;;;;;;;;;;;;;;;9.21;52.94;93227.28;5040288;28;19969;-68
2023/10/27 07:00:38;;;;;;;;;;;;;;;9.27;54.04;93229.06;5040162;28;19925;-69
2023/10/27 07:03:03;;;;;;;;;;;;;;;9.50;53.29;93224.81;5040551;28;19954;-69
2023/10/27 07:05:29;;;;;;;;;;;;;;;9.66;51.28;93227.81;5040025;28;19925;-68
2023/10/27 07:07:54;;;;;;;;;;;;;;;9.29;52.18;93220.84;5039348;28;19928;-68
2023/10/27 07:10:19;;;;;;;;;;;;;;;9.22;52.68;93228.94;5039484;28;19920;-69
2023/10/27 07:12:44;;;;;;;;;;;;;;;8.97;52.26;93226.44;5039797;28;19958;-68
2023/10/27 07:15:10;;;;;;;;;;;;;;;8.99;52.57;93225.19;5040683;28;19924;-68
2023/10/27 07:17:36;;;;;;;;;;;;;;;9.24;53.24;93221.53;5040508;28;20355;-68
2023/10/27 07:20:03;;;;;;;;;;;;;;;9.39;53.82;93233.56;5042993;28;19932;-68
2023/10/27 07:22:28;;;;;;;;;;;;;;;8.40;53.46;93234.50;5033545;28;19921;-68
2023/10/27 07:24:53;;;;;;;;;;;;;;;8.84;54.45;93232.72;5031922;28;20655;-68
2023/10/27 07:27:18;;;;;;;;;;;;;;;9.04;53.58;93235.91;5043990;28;20025;-68
2023/10/27 07:29:44;;;;;;;;;;;;;;;9.06;52.21;93225.91;5039128;28;19960;-68
2023/10/27 07:32:11;;;;;;;;;;;;;;;9.27;53.06;93234.34;5042921;28;20307;-68
2023/10/27 07:34:36;;;;;;;;;;;;;;;9.36;53.49;93237.50;5040142;28;20057;-68
2023/10/27 07:37:04;;;;;;;;;;;;;;;9.48;53.57;93237.50;5038927;28;19948;-68
2023/10/27 07:39:30;;;;;;;;;;;;;;;9.45;53.15;93238.75;5037658;28;19917;-68
2023/10/27 07:41:56;;;;;;;;;;;;;;;9.31;52.26;93246.13;5039323;28;19963;-68
2023/10/27 07:44:21;;;;;;;;;;;;;;;9.38;54.15;93242.59;5043702;28;19925;-68
2023/10/27 07:46:46;;;;;;;;;;;;;;;9.53;53.96;93245.59;5037078;28;19982;-68
2023/10/27 07:49:12;;;;;;;;;;;;;;;9.60;53.58;93245.50;5035080;28;20317;-68
2023/10/27 07:51:38;;;;;;;;;;;;;;;9.33;52.91;93252.03;5033001;28;19943;-68
2023/10/27 07:54:04;;;;;;;;;;;;;;;8.15;56.20;93258.44;5043524;28;19924;-68
2023/10/27 07:56:29;;;;;;;;;;;;;;;8.59;55.76;93254.88;5036158;28;19921;-68
2023/10/27 07:58:54;;;;;;;;;;;;;;;8.93;55.37;93255.25;5039310;28;19913;-68
2023/10/27 08:01:20;;;;;;;;;;;;;;;9.16;54.53;93251.06;5042606;28;20016;-68
2023/10/27 08:03:46;;;;;;;;;;;;;;;8.47;54.63;93258.25;5039102;28;19924;-69
2023/10/27 08:06:11;;;;;;;;;;;;;;;8.90;55.24;93247.72;5045369;28;19913;-68
2023/10/27 08:08:37;;;;;;;;;;;;;;;9.06;53.90;93247.13;5038963;28;19960;-68
2023/10/27 08:11:04;;;;;;;;;;;;;;;8.27;54.63;93247.91;5039734;28;19917;-68
2023/10/27 08:13:29;;;;;;;;;;;;;;;8.75;56.06;93254.25;5036286;28;19993;-68
2023/10/27 08:15:55;;;;;;;;;;;;;;;9.14;54.25;93242.50;5039521;28;20576;-68
2023/10/27 08:18:21;;;;;;;;;;;;;;;9.14;53.30;93245.16;5039048;28;19909;-68
2023/10/27 08:20:47;;;;;;;;;;;;;;;9.27;53.99;93244.16;5042669;28;19943;-68
2023/10/27 08:23:13;;;;;;;;;;;;;;;9.27;54.29;93237.00;5042481;28;19921;-68
2023/10/27 08:25:38;;;;;;;;;;;;;;;9.32;54.17;93231.03;5043156;28;19951;-69
2023/10/27 08:28:06;;;;;;;;;;;;;;;9.45;53.47;93235.28;5043257;28;19958;-68
2023/10/27 08:30:31;;;;;;;;;;;;;;;9.42;53.57;93243.75;5042356;28;19925;-68
2023/10/27 08:32:57;;;;;;;;;;;;;;;9.55;52.11;93245.34;5042930;28;20349;-69
2023/10/27 08:35:22;;;;;;;;;;;;;;;8.74;55.26;93247.31;5043132;28;20011;-68
2023/10/27 08:37:48;;;;;;;;;;;;;;;9.23;53.79;93243.81;5039369;28;19929;-68
2023/10/27 08:40:13;;;;;;;;;;;;;;;8.88;52.45;93247.16;5041530;28;20479;-69
2023/10/27 08:42:40;;;;;;;;;;;;;;;8.97;53.91;93248.47;5042853;28;20011;-68
2023/10/27 08:45:05;;;;;;;;;;;;;;;9.19;53.88;93246.09;5042442;28;20156;-69
2023/10/27 08:47:33;;;;;;;;;;;;;;;9.38;54.61;93232.75;5043267;28;19925;-69
2023/10/27 08:50:01;;;;;;;;;;;;;;;9.23;52.61;93241.16;5040986;28;19924;-69
2023/10/27 08:52:26;;;;;;;;;;;;;;;7.81;54.93;93260.59;5040016;28;19929;-68
2023/10/27 08:54:51;;;;;;;;;;;;;;;8.73;54.29;93258.16;5034331;28;19929;-68
2023/10/27 08:57:17;;;;;;;;;;;;;;;8.33;54.43;93259.47;5036399;28;20572;-68
2023/10/27 08:59:43;;;;;;;;;;;;;;;8.41;54.99;93257.34;5032126;28;20023;-69
2023/10/27 09:02:08;;;;;;;;;;;;;;;7.78;55.96;93267.16;5032821;28;19921;-69
2023/10/27 09:04:34;;;;;;;;;;;;;;;7.91;55.61;93271.53;5036249;28;19931;-68
2023/10/27 09:07:00;;;;;;;;;;;;;;;8.13;55.01;93271.09;5029415;28;20049;-68
2023/10/27 09:09:25;;;;;;;;;;;;;;;6.72;59.14;93284.34;5035278;28;19933;-68
2023/10/27 09:11:51;;;;;;;;;;;;;;;7.07;58.81;93276.03;5033412;28;19920;-68
2023/10/27 09:14:20;;;;;;;;;;;;;;;5.91;62.20;93285.41;5033123;28;19966;-69
2023/10/27 09:16:45;;;;;;;;;;;;;;;6.30;60.53;93282.06;5031785;28;20610;-68
2023/10/27 09:19:20;;;;;;;;;;;;;;;5.46;63.05;93297.44;5031037;28;19933;-69
2023/10/27 09:21:45;;;;;;;;;;;;;;;5.98;62.38;93301.25;5029347;28;19951;-69
2023/10/27 09:24:10;;;;;;;;;;;;;;;6.01;62.63;93302.69;5031354;28;20620;-69
2023/10/27 09:26:46;;;;;;;;;;;;;;;6.50;61.13;93296.03;5031177;28;20443;-69
2023/10/27 09:29:11;;;;;;;;;;;;;;;6.31;62.20;93302.19;5032118;28;19933;-69
2023/10/27 09:31:36;;;;;;;;;;;;;;;5.84;63.53;93308.38;5035742;28;19955;-69
2023/10/27 09:34:20;;;;;;;;;;;;;;;6.44;60.96;93299.50;5030842;28;19929;-69
2023/10/27 09:36:46;;;;;;;;;;;;;;;5.51;63.80;93310.00;5032866;28;20013;-69
2023/10/27 09:39:18;;;;;;;;;;;;;;;6.05;62.80;93307.31;5030881;28;19963;-69
2023/10/27 09:41:44;;;;;;;;;;;;;;;5.69;63.79;93314.69;5029852;28;19957;-70
2023/10/27 09:44:09;;;;;;;;;;;;;;;5.48;65.20;93313.88;5033996;28;20302;-68
2023/10/27 09:46:35;;;;;;;;;;;;;;;6.08;63.42;93322.78;5030846;28;19936;-70
2023/10/27 09:49:00;;;;;;;;;;;;;;;5.91;63.99;93322.38;5033831;28;19962;-69
2023/10/27 09:51:26;;;;;;;;;;;;;;;5.88;63.62;93319.34;5037421;28;20413;-69
2023/10/27 09:53:51;;;;;;;;;;;;;;;5.86;64.65;93320.34;5031478;28;20620;-69
2023/10/27 09:56:17;;;;;;;;;;;;;;;5.89;64.25;93313.03;5032298;28;20521;-69
2023/10/27 09:58:42;;;;;;;;;;;;;;;6.11;63.01;93326.81;5029020;28;19917;-69
2023/10/27 10:01:09;;;;;;;;;;;;;;;5.73;63.79;93331.75;5041580;28;20063;-69
2023/10/27 10:03:35;;;;;;;;;;;;;;;5.68;64.19;93322.81;5042586;28;20456;-69
2023/10/27 10:06:15;;;;;;;;;;;;;;;5.88;64.29;93320.16;5039190;28;19955;-68
2023/10/27 10:08:40;;;;;;;;;;;;;;;5.59;65.33;93335.41;5036940;28;19925;-69
2023/10/27 10:11:16;;;;;;;;;;;;;;;5.90;64.21;93338.44;5034857;28;20662;-69
2023/10/27 10:13:42;;;;;;;;;;;;;;;5.97;63.73;93334.78;5041170;28;20013;-69
2023/10/27 10:16:08;;;;;;;;;;;;;;;4.86;67.28;93342.97;5040620;28;20628;-69
2023/10/27 10:18:33;;;;;;;;;;;;;;;5.25;66.45;93345.13;5040941;28;20038;-69
2023/10/27 10:20:59;;;;;;;;;;;;;;;5.31;67.44;93331.13;5039172;28;19928;-69
2023/10/27 10:23:25;;;;;;;;;;;;;;;5.78;65.67;93343.53;5030724;28;19924;-68
2023/10/27 10:25:51;;;;;;;;;;;;;;;5.89;65.27;93340.28;5029123;28;20282;-69
2023/10/27 10:28:16;;;;;;;;;;;;;;;5.39;67.29;93340.66;5032138;28;19966;-69
2023/10/27 10:30:42;;;;;;;;;;;;;;;5.84;65.75;93330.31;5029542;28;19931;-69
2023/10/27 10:33:16;;;;;;;;;;;;;;;6.04;64.76;93337.41;5031356;28;19929;-69
2023/10/27 10:35:46;;;;;;;;;;;;;;;5.66;65.28;93333.59;5030275;28;19955;-70
2023/10/27 10:38:34;;;;;;;;;;;;;;;6.41;63.50;93329.00;5031173;28;20105;-69
2023/10/27 10:40:59;;;;;;;;;;;;;;;6.72;63.79;93334.59;5031376;28;19924;-69
2023/10/27 10:43:27;;;;;;;;;;;;;;;6.59;63.42;93333.63;5035724;28;19925;-69
2023/10/27 10:45:55;;;;;;;;;;;;;;;6.45;62.73;93338.13;5033539;28;20028;-69
2023/10/27 10:48:21;;;;;;;;;;;;;;;6.23;63.89;93327.00;5030119;28;19925;-69
2023/10/27 10:50:49;;;;;;;;;;;;;;;5.78;67.18;93338.25;5028028;28;19986;-69
2023/10/27 10:53:19;;;;;;;;;;;;;;;5.94;65.90;93329.91;5038016;28;19929;-69
2023/10/27 10:55:48;;;;;;;;;;;;;;;5.73;66.81;93347.59;5033391;28;20371;-69
2023/10/27 10:58:23;;;;;;;;;;;;;;;5.90;65.34;93330.50;5030720;28;20534;-69
2023/10/27 11:00:48;;;;;;;;;;;;;;;5.86;66.70;93340.69;5032141;28;19965;-69
2023/10/27 11:03:14;;;;;;;;;;;;;;;5.16;68.16;93347.94;5030447;28;19925;-69
2023/10/27 11:05:39;;;;;;;;;;;;;;;5.48;68.01;93340.25;5029623;28;19996;-69
2023/10/27 11:08:04;;;;;;;;;;;;;;;4.92;70.04;93352.72;5030939;28;19990;-69
2023/10/27 11:10:32;;;;;;;;;;;;;;;4.92;69.79;93363.28;5030655;28;20390;-69
2023/10/27 11:13:00;;;;;;;;;;;;;;;5.56;68.69;93346.38;5029543;28;20624;-69
2023/10/27 11:15:42;;;;;;;;;;;;;;;5.95;67.23;93344.72;5032037;28;19924;-69
2023/10/27 11:18:07;;;;;;;;;;;;;;;5.92;67.16;93341.69;5030424;28;19982;-69
2023/10/27 11:20:36;;;;;;;;;;;;;;;5.05;68.79;93362.50;5030750;28;20601;-69
2023/10/27 11:23:07;;;;;;;;;;;;;;;5.27;69.54;93370.28;5037756;28;19939;-69
2023/10/27 11:25:33;;;;;;;;;;;;;;;5.60;68.93;93351.03;5035917;28;19956;-69
2023/10/27 11:28:18;;;;;;;;;;;;;;;5.63;68.92;93346.34;5032130;28;20632;-69
2023/10/27 11:30:55;;;;;;;;;;;;;;;5.12;70.80;93341.44;5040101;28;19928;-69
2023/10/27 11:33:21;;;;;;;;;;;;;;;5.45;69.85;93338.03;5032712;28;20414;-69
2023/10/27 11:35:46;;;;;;;;;;;;;;;5.94;67.53;93337.00;5028614;28;19925;-69
2023/10/27 11:38:12;;;;;;;;;;;;;;;6.00;66.78;93346.75;5033440;28;20532;-69
2023/10/27 11:40:37;;;;;;;;;;;;;;;6.42;65.93;93343.03;5027894;28;20461;-69
2023/10/27 11:43:02;;;;;;;;;;;;;;;5.84;67.44;93338.25;5031444;28;19943;-69
2023/10/27 11:45:28;;;;;;;;;;;;;;;5.26;69.41;93352.00;5027258;28;19959;-69
2023/10/27 11:47:53;;;;;;;;;;;;;;;5.66;68.97;93344.16;5029721;28;20134;-69
2023/10/27 11:50:18;;;;;;;;;;;;;;;5.79;68.91;93350.44;5047563;28;19929;-69
2023/10/27 11:52:43;;;;;;;;;;;;;;;5.96;67.92;93346.34;5038994;28;19957;-69
2023/10/27 11:55:08;;;;;;;;;;;;;;;6.09;67.67;93350.81;5032350;28;19951;-69
2023/10/27 11:57:34;;;;;;;;;;;;;;;6.57;65.64;93338.34;5030910;28;20558;-69
2023/10/27 11:59:59;;;;;;;;;;;;;;;6.98;63.80;93343.44;5033670;28;20317;-69
2023/10/27 12:02:25;;;;;;;;;;;;;;;6.89;63.92;93356.09;5035684;28;19935;-69
2023/10/27 12:04:51;;;;;;;;;;;;;;;7.10;64.26;93349.69;5035851;28;19978;-69
2023/10/27 12:07:17;;;;;;;;;;;;;;;7.31;63.23;93349.59;5040471;28;19921;-69
2023/10/27 12:09:42;;;;;;;;;;;;;;;6.82;64.18;93357.94;5041620;28;19947;-69
2023/10/27 12:12:09;;;;;;;;;;;;;;;7.42;63.19;93346.25;5043459;28;19959;-69
2023/10/27 12:14:34;;;;;;;;;;;;;;;7.76;62.76;93346.78;5039147;28;20420;-69
2023/10/27 12:16:59;;;;;;;;;;;;;;;7.44;62.60;93352.13;5035982;28;19925;-69
2023/10/27 12:19:24;;;;;;;;;;;;;;;7.70;62.68;93346.84;5034248;28;19925;-69
2023/10/27 12:21:50;;;;;;;;;;;;;;;7.48;61.83;93360.47;5033346;28;19925;-70
2023/10/27 12:24:15;;;;;;;;;;;;;;;7.30;62.95;93363.81;5034086;28;19952;-69
2023/10/27 12:26:40;;;;;;;;;;;;;;;7.24;63.08;93358.34;5034359;28;20332;-69
2023/10/27 12:29:08;;;;;;;;;;;;;;;6.92;64.62;93365.44;5034300;28;19964;-69
2023/10/27 12:31:33;;;;;;;;;;;;;;;6.93;64.69;93375.03;5033264;28;19929;-69
2023/10/27 12:33:59;;;;;;;;;;;;;;;7.59;63.03;93366.91;5040630;28;20556;-69
2023/10/27 12:36:24;;;;;;;;;;;;;;;7.18;63.04;93390.16;5042813;28;19953;-69
2023/10/27 12:38:50;;;;;;;;;;;;;;;7.41;61.77;93377.19;5042407;28;19920;-69
2023/10/27 12:41:15;;;;;;;;;;;;;;;7.43;62.14;93369.06;5043138;28;20526;-69
2023/10/27 12:43:40;;;;;;;;;;;;;;;7.34;62.64;93365.03;5039357;28;20027;-69
2023/10/27 12:46:05;;;;;;;;;;;;;;;8.45;60.55;93363.75;5033105;28;19974;-69
2023/10/27 12:48:31;;;;;;;;;;;;;;;10.58;54.95;93353.19;5036735;28;19929;-70
2023/10/27 12:50:57;;;;;;;;;;;;;;;11.42;51.31;93358.31;5042967;28;19940;-69